Time;durP1;ratioP1;P1;durP2;ratioP2;P2;SDS_P1;SDS_P2;PMS_P1;PMS_P2;Temp;Humidity;BMP_temperature;BMP_pressure;BME280_temperature;BME280_humidity;BME280_pressure;Samples;Min_cycle;Max_cycle;Signal;HPM_P1;HPM_P2
2023/08/06 00:00:49;;;;;;;12.77;7.95;;;;;;;21.94;91.21;95267.81;5013644;28;20046;-65
2023/08/06 00:03:23;;;;;;;14.27;9.00;;;;;;;21.93;90.35;95249.34;5013743;28;20045;-64
2023/08/06 00:06:03;;;;;;;14.50;8.23;;;;;;;21.98;90.66;95251.53;5013626;28;20642;-64
2023/08/06 00:08:45;;;;;;;16.15;9.07;;;;;;;22.03;89.80;95255.38;5013555;28;20553;-61
2023/08/06 00:11:22;;;;;;;16.75;8.95;;;;;;;22.04;89.25;95257.06;5013419;28;20128;-60
2023/08/06 00:13:57;;;;;;;15.65;8.80;;;;;;;22.02;90.25;95266.19;5013602;28;20058;-64
2023/08/06 00:16:55;;;;;;;12.70;8.40;;;;;;;22.02;90.67;95275.00;5013495;28;20054;-64
2023/08/06 00:19:31;;;;;;;15.95;8.70;;;;;;;22.01;90.30;95276.00;5013239;28;20042;-63
2023/08/06 00:22:13;;;;;;;12.38;8.88;;;;;;;21.96;90.14;95265.84;5016929;28;20045;-61
2023/08/06 00:24:42;;;;;;;14.82;9.25;;;;;;;21.78;92.02;95255.28;5033017;28;20049;-63
2023/08/06 00:27:11;;;;;;;12.93;9.68;;;;;;;21.82;92.00;95271.75;5015192;28;20045;-62
2023/08/06 00:29:42;;;;;;;13.68;9.25;;;;;;;21.83;92.00;95266.28;5033079;28;20064;-61
2023/08/06 00:32:12;;;;;;;15.35;8.68;;;;;;;21.90;91.28;95265.63;5032873;28;20099;-65
2023/08/06 00:34:45;;;;;;;14.30;9.23;;;;;;;21.94;90.89;95261.66;5032912;28;20041;-65
2023/08/06 00:37:14;;;;;;;11.30;8.52;;;;;;;21.95;90.06;95258.81;5033026;28;20136;-63
2023/08/06 00:39:41;;;;;;;10.90;8.65;;;;;;;21.86;90.72;95257.16;5032913;28;20045;-63
2023/08/06 00:42:09;;;;;;;15.07;9.40;;;;;;;21.74;92.21;95251.25;5033083;28;20458;-67
2023/08/06 00:44:38;;;;;;;14.60;10.20;;;;;;;21.67;92.56;95252.88;5032663;28;20132;-67
2023/08/06 00:47:14;;;;;;;14.40;10.35;;;;;;;21.62;93.37;95252.50;5032818;28;20049;-63
2023/08/06 00:50:22;;;;;;;13.20;9.30;;;;;;;21.62;93.95;95249.84;5032975;28;20473;-62
2023/08/06 00:52:57;;;;;;;13.48;9.45;;;;;;;21.65;93.12;95245.06;5034826;28;20060;-63
2023/08/06 00:55:38;;;;;;;15.70;10.02;;;;;;;21.57;94.00;95250.31;5036807;28;20107;-62
2023/08/06 01:01:09;;;;;;;11.85;10.07;;;;;;;21.62;93.69;95249.84;5032328;28;20061;-64
2023/08/06 01:03:48;;;;;;;;;;;;;;;21.59;94.60;95245.69;5036806;28;20413;-61
2023/08/06 01:06:20;;;;;;;14.65;10.45;;;;;;;21.48;95.74;95230.00;5034907;28;19921;-61
2023/08/06 01:08:55;;;;;;;17.13;11.20;;;;;;;21.43;96.90;95231.31;5036614;28;20089;-64
2023/08/06 01:11:33;;;;;;;14.18;10.45;;;;;;;21.45;96.91;95229.34;5036608;28;20049;-61
2023/08/06 01:14:27;;;;;;;16.33;9.75;;;;;;;21.47;96.03;95223.84;5036443;28;20522;-61
2023/08/06 01:16:56;;;;;;;16.45;10.13;;;;;;;21.52;95.89;95228.72;5036524;28;20495;-63
2023/08/06 01:19:24;;;;;;;13.07;10.80;;;;;;;21.42;96.65;95227.00;5036402;28;20402;-62
2023/08/06 01:21:52;;;;;;;17.67;11.55;;;;;;;21.40;97.52;95220.97;5036379;28;20135;-65
2023/08/06 01:24:29;;;;;;;19.92;10.80;;;;;;;21.44;96.51;95217.03;5036373;28;20080;-61
2023/08/06 01:27:09;;;;;;;16.02;10.93;;;;;;;21.50;96.25;95212.06;5034963;28;20045;-65
2023/08/06 01:29:42;;;;;;;15.93;11.02;;;;;;;21.52;96.62;95208.25;5036225;28;20052;-60
2023/08/06 01:32:13;;;;;;;13.45;8.98;;;;;;;21.57;95.90;95205.09;5036135;28;20132;-63
2023/08/06 01:34:42;;;;;;;15.35;10.10;;;;;;;21.51;97.14;95197.75;5035997;28;20049;-65
2023/08/06 01:37:12;;;;;;;19.05;11.18;;;;;;;21.51;97.38;95180.00;5036025;28;20124;-63
2023/08/06 01:39:41;;;;;;;14.13;11.00;;;;;;;21.49;97.78;95183.81;5036064;28;20116;-62
2023/08/06 01:42:09;;;;;;;16.35;11.23;;;;;;;21.49;98.08;95181.16;5035576;28;20084;-60
2023/08/06 01:44:36;;;;;;;15.57;10.38;;;;;;;21.54;97.68;95168.19;5035940;28;20132;-64
2023/08/06 01:47:03;;;;;;;14.00;11.13;;;;;;;21.57;97.73;95167.88;5035953;28;20053;-63
2023/08/06 01:49:30;;;;;;;14.63;11.50;;;;;;;21.59;97.26;95173.88;5035911;28;20045;-62
2023/08/06 01:51:57;;;;;;;16.35;12.38;;;;;;;21.57;97.08;95165.22;5035744;28;20045;-61
2023/08/06 01:54:27;;;;;;;14.00;11.40;;;;;;;21.54;97.42;95163.72;5035698;28;20521;-62
2023/08/06 01:56:54;;;;;;;19.23;11.90;;;;;;;21.52;97.78;95157.72;5035759;28;20112;-63
2023/08/06 01:59:21;;;;;;;15.30;11.77;;;;;;;21.50;97.92;95158.88;5035611;28;20054;-67
2023/08/06 02:02:07;;;;;;;15.00;11.98;;;;;;;21.52;97.25;95156.91;5035283;28;20446;-63
2023/08/06 02:04:34;;;;;;;18.70;12.52;;;;;;;21.50;97.82;95162.38;5035648;28;20049;-65
2023/08/06 02:07:01;;;;;;;23.58;12.88;;;;;;;21.50;98.07;95159.72;5035490;28;20081;-65
2023/08/06 02:09:30;;;;;;;20.80;11.60;;;;;;;21.52;97.95;95157.72;5035651;28;20088;-61
2023/08/06 02:11:57;;;;;;;18.27;11.32;;;;;;;21.49;98.29;95155.38;5035504;28;20045;-61
2023/08/06 02:14:24;;;;;;;15.25;10.93;;;;;;;21.50;98.16;95157.06;5035245;28;20509;-63
2023/08/06 02:16:51;;;;;;;15.93;10.35;;;;;;;21.49;98.55;95157.22;5035270;28;20529;-64
2023/08/06 02:19:18;;;;;;;17.05;11.82;;;;;;;21.54;98.06;95152.22;5035305;28;20045;-62
2023/08/06 02:21:45;;;;;;;12.57;10.02;;;;;;;21.57;98.26;95151.91;5035427;28;20095;-64
2023/08/06 02:24:12;;;;;;;15.50;10.82;;;;;;;21.58;97.95;95158.88;5035169;28;20060;-63
2023/08/06 02:26:41;;;;;;;23.77;10.40;;;;;;;21.60;97.88;95151.59;5035142;28;20077;-62
2023/08/06 02:29:08;;;;;;;17.73;10.90;;;;;;;21.63;97.55;95148.63;5035177;28;20383;-64
2023/08/06 02:31:35;;;;;;;18.48;10.27;;;;;;;21.67;97.19;95149.13;5034810;28;20103;-62
2023/08/06 02:34:02;;;;;;;14.63;10.15;;;;;;;21.72;96.50;95157.44;5035022;28;20513;-66
2023/08/06 02:36:29;;;;;;;17.60;10.07;;;;;;;21.79;96.30;95158.50;5034998;28;20041;-66
2023/08/06 02:38:57;;;;;;;13.63;10.45;;;;;;;21.75;95.74;95148.31;5034904;28;20045;-63
2023/08/06 02:41:24;;;;;;;14.68;10.07;;;;;;;21.77;96.00;95154.34;5034841;28;20582;-63
2023/08/06 02:43:54;;;;;;;10.70;9.27;;;;;;;21.74;95.75;95146.66;5035066;28;20152;-64
2023/08/06 02:46:20;;;;;;;13.35;9.57;;;;;;;21.73;95.71;95153.78;5034795;28;20080;-65
2023/08/06 02:48:47;;;;;;;13.77;9.80;;;;;;;21.76;94.86;95156.16;5034719;28;20045;-63
2023/08/06 02:51:25;;;;;;;19.05;9.68;;;;;;;21.74;94.81;95163.44;5034804;28;20053;-61
2023/08/06 02:53:53;;;;;;;14.82;9.55;;;;;;;21.76;94.77;95172.13;5034009;28;20064;-60
2023/08/06 02:56:33;;;;;;;13.70;9.50;;;;;;;21.81;94.53;95168.97;5034709;28;20049;-62
2023/08/06 02:59:01;;;;;;;12.23;9.07;;;;;;;21.88;93.56;95171.84;5034378;28;20053;-61
2023/08/06 03:01:38;;;;;;;12.30;9.35;;;;;;;21.94;93.76;95176.47;5034756;28;20053;-66
2023/08/06 03:04:05;;;;;;;11.75;8.98;;;;;;;21.92;93.54;95174.00;5034355;28;20056;-64
2023/08/06 03:06:32;;;;;;;17.38;9.50;;;;;;;21.92;93.29;95165.19;5034516;28;20073;-66
2023/08/06 03:08:59;;;;;;;12.57;9.45;;;;;;;21.92;93.84;95173.16;5034329;28;20049;-64
2023/08/06 03:11:26;;;;;;;14.20;10.00;;;;;;;21.79;94.35;95160.34;5034145;28;20099;-64
2023/08/06 03:13:53;;;;;;;19.75;10.13;;;;;;;21.77;94.65;95157.00;5033285;28;20049;-62
2023/08/06 03:16:21;;;;;;;19.73;10.70;;;;;;;21.75;94.98;95161.59;5034462;28;20071;-66
2023/08/06 03:18:48;;;;;;;23.42;10.38;;;;;;;21.77;94.92;95165.81;5034205;28;20128;-67
2023/08/06 03:21:15;;;;;;;17.10;10.23;;;;;;;21.85;94.44;95165.00;5034185;28;20049;-63
2023/08/06 03:23:42;;;;;;;12.02;9.65;;;;;;;21.90;93.96;95156.53;5033765;28;20054;-61
2023/08/06 03:26:09;;;;;;;19.30;9.82;;;;;;;21.93;93.60;95158.84;5033930;28;20137;-65
2023/08/06 03:28:36;;;;;;;19.55;9.82;;;;;;;21.93;93.85;95162.38;5033941;28;20136;-61
2023/08/06 03:31:04;;;;;;;12.68;9.63;;;;;;;21.92;93.92;95147.41;5033529;28;20081;-63
2023/08/06 03:33:32;;;;;;;16.95;9.75;;;;;;;21.87;94.14;95155.03;5033747;28;20053;-62
2023/08/06 03:35:59;;;;;;;14.93;9.85;;;;;;;21.84;94.42;95156.19;5033812;28;20048;-61
2023/08/06 03:38:27;;;;;;;16.30;9.90;;;;;;;21.90;93.85;95153.84;5033683;28;20140;-64
2023/08/06 03:40:54;;;;;;;12.02;9.73;;;;;;;21.97;93.60;95149.53;5033779;28;20103;-65
2023/08/06 03:43:21;;;;;;;16.20;9.85;;;;;;;21.92;93.69;95142.06;5033787;28;20046;-64
2023/08/06 03:45:48;;;;;;;15.63;9.73;;;;;;;21.94;93.41;95133.91;5033673;28;20049;-63
2023/08/06 03:48:17;;;;;;;13.20;9.70;;;;;;;21.91;93.77;95132.41;5033745;28;20463;-64
2023/08/06 03:50:46;;;;;;;13.38;9.40;;;;;;;21.91;94.00;95134.25;5033306;28;20045;-61
2023/08/06 03:53:13;;;;;;;14.30;8.95;;;;;;;21.96;93.24;95134.59;5033477;28;20053;-65
2023/08/06 03:55:40;;;;;;;15.77;9.63;;;;;;;22.00;92.21;95132.44;5033424;28;20482;-63
2023/08/06 03:58:07;;;;;;;14.85;8.65;;;;;;;21.97;91.93;95128.25;5033407;28;20060;-64
2023/08/06 04:00:34;;;;;;;13.85;8.43;;;;;;;22.03;91.95;95137.44;5033314;28;20041;-61
2023/08/06 04:03:01;;;;;;;13.65;8.93;;;;;;;22.14;90.96;95138.94;5033343;28;20049;-63
2023/08/06 04:05:28;;;;;;;13.88;8.20;;;;;;;22.27;90.58;95151.78;5033328;28;20046;-66
2023/08/06 04:07:56;;;;;;;13.25;8.65;;;;;;;22.36;89.56;95155.25;5033337;28;20088;-62
2023/08/06 04:10:24;;;;;;;11.68;7.75;;;;;;;22.48;87.59;95159.25;5033265;28;20574;-62
2023/08/06 04:12:51;;;;;;;12.48;7.50;;;;;;;22.56;87.66;95161.91;5033278;28;20084;-64
2023/08/06 04:15:44;;;;;;;12.38;8.00;;;;;;;22.69;87.23;95153.44;5033276;28;20123;-60
2023/08/06 04:18:24;;;;;;;13.73;7.78;;;;;;;22.81;86.99;95148.59;5033199;28;20053;-61
2023/08/06 04:21:16;;;;;;;13.38;8.73;;;;;;;22.90;85.56;95145.94;5029154;28;20053;-62
2023/08/06 04:23:46;;;;;;;14.18;8.15;;;;;;;23.06;85.10;95147.72;5030161;28;20490;-63
2023/08/06 04:26:13;;;;;;;13.25;7.35;;;;;;;23.19;83.91;95152.50;5032832;28;20049;-62
2023/08/06 04:28:40;;;;;;;12.23;7.50;;;;;;;23.47;83.13;95147.59;5032917;28;20049;-64
2023/08/06 04:31:07;;;;;;;9.45;6.22;;;;;;;23.87;81.15;95159.25;5020471;28;20058;-66
2023/08/06 04:34:01;;;;;;;10.32;6.95;;;;;;;24.17;78.62;95157.59;4996223;28;20043;-63
2023/08/06 04:36:34;;;;;;;13.73;6.53;;;;;;;24.21;76.75;95153.59;4993452;28;20407;-64
2023/08/06 04:39:03;;;;;;;11.02;6.05;;;;;;;24.27;76.67;95144.03;5008996;28;20077;-66
2023/08/06 04:41:30;;;;;;;10.35;6.30;;;;;;;24.27;75.32;95148.53;4998786;28;20133;-64
2023/08/06 04:43:58;;;;;;;13.70;6.50;;;;;;;24.12;75.81;95135.91;4993550;28;20050;-67
2023/08/06 04:46:25;;;;;;;11.77;6.35;;;;;;;24.18;75.98;95143.25;4993507;28;20093;-63
2023/08/06 04:48:52;;;;;;;13.00;6.65;;;;;;;24.27;76.13;95138.69;4993553;28;20050;-66
2023/08/06 04:51:19;;;;;;;11.85;6.45;;;;;;;24.43;75.25;95131.53;4993607;28;20050;-64
2023/08/06 04:53:52;;;;;;;11.45;6.07;;;;;;;24.44;74.57;95133.22;4993450;28;20113;-65
2023/08/06 04:57:03;;;;;;;9.60;6.20;;;;;;;24.39;74.49;95130.22;4992737;28;20050;-61
2023/08/06 04:59:34;;;;;;;12.93;6.53;;;;;;;24.28;74.64;95143.00;4989335;28;20133;-64
2023/08/06 05:02:14;;;;;;;9.45;6.43;;;;;;;24.28;74.85;95135.00;4993361;28;20054;-66
2023/08/06 05:04:41;;;;;;;15.27;6.53;;;;;;;24.27;75.22;95132.50;4993339;28;20053;-64
2023/08/06 05:07:08;;;;;;;11.70;6.18;;;;;;;24.18;74.99;95126.38;4992713;28;20492;-63
2023/08/06 05:09:36;;;;;;;11.60;6.68;;;;;;;24.20;76.28;95127.06;4992707;28;20050;-66
2023/08/06 05:12:22;;;;;;;13.07;5.63;;;;;;;24.35;75.19;95127.91;5001841;28;20045;-63
2023/08/06 05:14:49;;;;;;;11.27;6.05;;;;;;;24.55;74.28;95126.59;5002894;28;20046;-62
2023/08/06 05:17:25;;;;;;;6.85;5.28;;;;;;;24.61;73.54;95125.88;5000083;28;20101;-69
2023/08/06 05:19:54;;;;;;;12.57;6.38;;;;;;;24.34;73.87;95128.09;5001404;28;20050;-66
2023/08/06 05:22:28;;;;;;;10.05;6.82;;;;;;;24.25;75.13;95130.00;5000872;28;20046;-65
2023/08/06 05:25:14;;;;;;;12.57;6.70;;;;;;;24.21;75.23;95128.69;4998883;28;20554;-66
2023/08/06 05:27:42;;;;;;;13.52;7.05;;;;;;;24.21;74.94;95128.69;5001191;28;20377;-65
2023/08/06 05:31:10;;;;;;;13.73;6.57;;;;;;;24.17;74.86;95130.88;5004977;28;20456;-64
2023/08/06 05:36:54;;;;;;;10.70;6.57;;;;;;;24.36;72.95;95139.44;5008493;28;20064;-61
2023/08/06 05:39:21;;;;;;;13.50;6.90;;;;;;;24.35;73.47;95135.94;5007095;28;20125;-64
2023/08/06 05:41:50;;;;;;;11.05;6.53;;;;;;;24.32;73.73;95125.59;5039034;28;20481;-63
2023/08/06 05:44:47;;;;;;;12.05;6.72;;;;;;;24.40;74.26;95131.88;5055873;28;20044;-64
2023/08/06 05:47:22;;;;;;;11.48;6.70;;;;;;;24.53;72.64;95129.44;5055024;28;20532;-67
2023/08/06 05:50:19;;;;;;;10.77;6.22;;;;;;;24.79;72.46;95125.53;5048277;28;20053;-60
2023/08/06 05:52:58;;;;;;;21.88;7.30;;;;;;;24.96;71.48;95128.06;5032728;28;20049;-60
2023/08/06 05:55:25;;;;;;;13.82;6.68;;;;;;;25.28;69.65;95117.19;5035771;28;20457;-65
2023/08/06 05:57:55;;;;;;;9.32;6.10;;;;;;;25.49;68.57;95119.94;5035707;28;20099;-64
2023/08/06 06:00:24;;;;;;;9.85;5.90;;;;;;;25.47;67.54;95121.16;5055457;28;20103;-63
2023/08/06 06:03:03;;;;;;;7.90;5.65;;;;;;;25.84;67.32;95099.75;5055687;28;20145;-62
2023/08/06 06:05:31;;;;;;;8.10;5.55;;;;;;;26.27;65.56;95090.91;5055639;28;20448;-65
2023/08/06 06:08:01;;;;;;;16.80;5.85;;;;;;;26.74;63.85;95090.47;5055565;28;20149;-64
2023/08/06 06:10:29;;;;;;;7.20;5.22;;;;;;;26.98;61.86;95081.19;5054586;28;20516;-62
2023/08/06 06:12:56;;;;;;;8.38;5.85;;;;;;;27.08;61.91;95085.34;5037694;28;20045;-60
2023/08/06 06:15:25;;;;;;;13.30;6.15;;;;;;;27.10;60.87;95084.16;5055444;28;20056;-64
2023/08/06 06:17:52;;;;;;;10.75;7.00;;;;;;;27.04;60.71;95092.13;5037664;28;20124;-63
2023/08/06 06:20:19;;;;;;;13.43;7.07;;;;;;;26.61;61.84;95094.72;5055050;28;20107;-64
2023/08/06 06:23:02;;;;;;;11.20;8.10;;;;;;;26.17;62.93;95087.72;5032064;28;20116;-64
2023/08/06 06:25:29;;;;;;;9.27;7.80;;;;;;;25.93;64.14;95087.09;5055234;28;20049;-61
2023/08/06 06:27:58;;;;;;;13.32;7.15;;;;;;;25.84;64.49;95097.94;5026231;28;20099;-65
2023/08/06 06:30:34;;;;;;;11.68;7.75;;;;;;;25.78;64.79;95098.69;5034470;28;20056;-62
2023/08/06 06:33:04;;;;;;;13.88;7.50;;;;;;;25.49;65.76;95087.81;5034449;28;20145;-61
2023/08/06 06:35:32;;;;;;;12.27;7.70;;;;;;;25.31;66.84;95098.09;5035447;28;20057;-67
2023/08/06 06:37:59;;;;;;;15.63;8.65;;;;;;;25.29;67.00;95118.84;5054371;28;20506;-65
2023/08/06 06:40:27;;;;;;;20.17;9.73;;;;;;;25.20;68.10;95110.09;5054902;28;20091;-64
2023/08/06 06:42:54;;;;;;;13.98;8.98;;;;;;;25.17;67.43;95107.78;5054924;28;20060;-62
2023/08/06 06:45:21;;;;;;;9.43;8.43;;;;;;;25.06;68.20;95104.56;5054790;28;20136;-62
2023/08/06 06:47:50;;;;;;;13.05;8.88;;;;;;;25.11;68.63;95110.19;5040693;28;20081;-64
2023/08/06 06:50:17;;;;;;;12.32;9.40;;;;;;;25.21;68.57;95101.88;5034821;28;20150;-63
2023/08/06 06:52:44;;;;;;;9.80;8.48;;;;;;;25.38;68.67;95112.41;5034227;28;20505;-62
2023/08/06 06:55:11;;;;;;;15.00;8.63;;;;;;;25.48;68.28;95112.94;5034516;28;20050;-61
2023/08/06 06:58:04;;;;;;;14.60;7.60;;;;;;;25.47;68.27;95110.44;5034247;28;20052;-61
2023/08/06 07:01:06;;;;;;;16.85;8.75;;;;;;;25.33;69.17;95093.38;5033259;28;20055;-65
2023/08/06 07:03:38;;;;;;;15.05;8.55;;;;;;;25.24;68.84;95120.25;5033567;28;20045;-63
2023/08/06 07:06:06;;;;;;;13.40;9.40;;;;;;;25.02;69.34;95124.66;5034368;28;20483;-63
2023/08/06 07:08:44;;;;;;;13.48;10.13;;;;;;;24.91;70.54;95127.78;5041172;28;20045;-64
2023/08/06 07:11:12;;;;;;;14.10;11.27;;;;;;;24.68;71.20;95145.50;5053951;28;20048;-69
2023/08/06 07:13:41;;;;;;;16.30;10.32;;;;;;;24.58;71.88;95147.59;5054116;28;20088;-69
2023/08/06 07:16:25;;;;;;;13.98;11.07;;;;;;;24.54;72.52;95173.88;5054079;28;20049;-69
2023/08/06 07:19:15;;;;;;;14.82;11.63;;;;;;;24.50;72.51;95183.22;5051306;28;20083;-69
2023/08/06 07:28:32;;;;;;;14.55;11.43;;;;;;;24.22;74.49;95184.63;5086920;28;20056;-68
2023/08/06 07:34:38;;;;;;;18.02;13.32;;;;;;;24.20;74.92;95228.53;5086656;28;20090;-68
2023/08/06 07:40:25;;;;;;;23.08;14.13;;;;;;;24.32;76.44;95156.84;5079168;28;20056;-68
2023/08/06 07:42:59;;;;;;;15.23;12.82;;;;;;;24.04;78.04;95127.94;5089098;28;20040;-68
2023/08/06 07:45:36;;;;;;;20.55;14.85;;;;;;;23.51;81.17;95048.56;5090054;28;20416;-68
2023/08/06 07:48:54;;;;;;;19.75;16.65;;;;;;;23.21;85.12;95039.34;5090325;28;20059;-68
2023/08/06 07:52:33;;;;;;;22.05;17.00;;;;;;;22.84;88.63;95041.66;5035906;28;20422;-67
2023/08/06 07:55:42;;;;;;;;;;;;;;;22.54;90.63;94961.47;5087073;28;20141;-67
2023/08/06 07:59:03;;;;;;;30.38;18.73;;;;;;;22.19;94.39;94859.72;5088839;28;19920;-67
2023/08/06 08:05:33;;;;;;;19.15;13.25;;;;;;;22.25;84.56;95064.06;5088449;28;20139;-68
2023/08/06 08:08:41;;;;;;;22.35;15.82;;;;;;;22.39;90.40;95099.81;5089288;28;20053;-68
2023/08/06 08:11:12;;;;;;;25.00;16.20;;;;;;;22.43;91.74;95097.66;5086932;28;20048;-69
2023/08/06 08:14:13;;;;;;;21.80;17.38;;;;;;;22.44;93.12;95075.34;5089835;28;20091;-69
2023/08/06 08:16:52;;;;;;;21.13;18.73;;;;;;;22.51;93.55;95134.13;5087360;28;20048;-69
2023/08/06 08:19:22;;;;;;;25.95;19.83;;;;;;;22.67;94.62;95142.09;5089385;28;20131;-69
2023/08/06 08:22:26;;;;;;;22.52;19.02;;;;;;;22.84;92.62;95128.75;5089627;28;20059;-69
2023/08/06 08:24:56;;;;;;;23.83;18.65;;;;;;;23.02;91.92;95149.06;5077219;28;20059;-69
2023/08/06 08:27:23;;;;;;;25.20;17.85;;;;;;;23.17;90.75;95138.50;5069208;28;20048;-69
2023/08/06 08:29:50;;;;;;;23.58;17.73;;;;;;;23.20;89.53;95114.16;5069176;28;20135;-69
2023/08/06 08:32:26;;;;;;;19.00;17.05;;;;;;;23.33;89.71;95098.44;5069198;28;20045;-68
2023/08/06 08:34:53;;;;;;;22.60;17.13;;;;;;;23.45;88.25;95093.59;5063856;28;20102;-69
2023/08/06 08:41:10;;;;;;;21.45;16.90;;;;;;;23.72;87.99;95082.63;5052493;28;20053;-68
2023/08/06 08:43:45;;;;;;;17.63;15.73;;;;;;;23.83;88.20;95081.38;5055188;28;20051;-68
2023/08/06 08:46:23;;;;;;;18.77;16.02;;;;;;;23.95;86.50;95079.97;5055694;28;20568;-69
2023/08/06 08:49:00;;;;;;;20.08;15.95;;;;;;;24.13;86.32;95083.31;5055651;28;20048;-69
2023/08/06 08:58:06;;;;;;;16.50;14.77;;;;;;;24.96;82.79;95080.75;5051190;28;20045;-69
2023/08/06 09:00:54;;;;;;;23.63;15.30;;;;;;;25.33;81.49;95067.47;5029061;28;20049;-69
2023/08/06 09:03:56;;;;;;;16.77;13.18;;;;;;;25.53;78.08;95077.59;5055560;28;20041;-69
2023/08/06 09:06:27;;;;;;;23.13;13.93;;;;;;;25.71;76.92;95090.56;5055557;28;20044;-69
2023/08/06 09:09:25;;;;;;;22.75;13.88;;;;;;;25.76;76.59;95094.53;5055332;28;20045;-69
2023/08/06 09:12:29;;;;;;;18.38;13.23;;;;;;;25.91;75.40;95097.16;5053390;28;20556;-69
2023/08/06 09:15:07;;;;;;;13.60;12.10;;;;;;;26.02;74.57;95104.69;5053940;28;20132;-69
2023/08/06 09:18:22;;;;;;;22.80;15.02;;;;;;;26.11;71.33;95098.19;5054961;28;20494;-68
2023/08/06 09:21:29;;;;;;;19.20;14.63;;;;;;;26.77;72.18;95090.09;5054654;28;20049;-69
2023/08/06 09:24:20;;;;;;;15.30;11.32;;;;;;;27.36;67.86;95093.34;5055019;28;20375;-69
2023/08/06 09:27:45;;;;;;;15.68;11.18;;;;;;;27.37;62.69;95086.97;5055017;28;20741;-69
2023/08/06 09:30:39;;;;;;;15.27;10.95;;;;;;;27.77;67.60;95071.19;5054709;28;20059;-69
2023/08/06 09:33:28;;;;;;;12.43;10.95;;;;;;;27.82;61.53;95080.31;5054861;28;20529;-69
2023/08/06 09:39:46;;;;;;;13.70;11.40;;;;;;;28.91;58.99;95089.28;5033785;28;20533;-69
2023/08/06 09:42:16;;;;;;;15.73;12.20;;;;;;;29.28;57.70;95083.41;5034856;28;20046;-69
2023/08/06 09:45:04;;;;;;;17.73;12.85;;;;;;;29.56;57.25;95076.09;5034727;28;20084;-69
2023/08/06 09:51:42;;;;;;;19.90;11.60;;;;;;;29.20;53.87;95054.06;5029123;28;20520;-69
2023/08/06 09:54:30;;;;;;;;;;;;;;;28.98;51.34;95052.47;5034730;28;20085;-68
2023/08/06 09:57:56;;;;;;;13.75;12.38;;;;;;;28.67;54.38;95039.66;5033748;28;19929;-68
2023/08/06 10:01:03;;;;;;;18.88;11.65;;;;;;;28.69;55.93;95035.75;5032322;28;20053;-69
2023/08/06 10:04:05;;;;;;;14.02;12.43;;;;;;;28.38;54.30;95026.44;5034282;28;20076;-68
2023/08/06 10:06:42;;;;;;;13.25;11.75;;;;;;;27.99;56.03;95032.41;5034265;28;20045;-68
2023/08/06 10:10:12;;;;;;;13.55;12.07;;;;;;;28.09;57.84;95039.25;5034518;28;20057;-69
2023/08/06 10:13:11;;;;;;;18.77;13.13;;;;;;;28.25;58.74;95035.31;5028960;28;20486;-68
2023/08/06 10:15:47;;;;;;;17.30;13.98;;;;;;;28.72;60.40;95040.69;5030046;28;20085;-69
2023/08/06 10:18:30;;;;;;;17.35;12.43;;;;;;;29.41;57.47;95044.88;5033924;28;20049;-69
2023/08/06 10:21:17;;;;;;;20.30;12.73;;;;;;;29.77;55.18;95069.59;5033946;28;20049;-69
2023/08/06 10:24:29;;;;;;;17.35;14.15;;;;;;;29.74;54.38;95065.44;5033253;28;20050;-69
2023/08/06 10:27:04;;;;;;;17.42;14.15;;;;;;;29.34;54.94;95070.97;5033931;28;20129;-70
2023/08/06 10:33:02;;;;;;;18.30;16.08;;;;;;;28.85;56.77;95069.44;5032188;28;20057;-69
2023/08/06 10:36:07;;;;;;;18.25;16.52;;;;;;;28.70;57.16;95080.41;5031478;28;20053;-68
2023/08/06 10:38:36;;;;;;;19.42;16.75;;;;;;;28.36;57.69;95079.59;5033165;28;20080;-69
2023/08/06 10:41:05;;;;;;;21.05;17.45;;;;;;;28.09;58.83;95080.38;5033795;28;20491;-69
2023/08/06 10:43:35;;;;;;;19.80;17.55;;;;;;;27.93;59.40;95086.13;5033684;28;20124;-69
2023/08/06 10:46:17;;;;;;;21.13;18.70;;;;;;;27.78;59.55;95083.63;5033801;28;20128;-68
2023/08/06 10:52:00;;;;;;;22.83;20.73;;;;;;;27.49;61.42;95091.75;5032601;28;20053;-69
2023/08/06 10:54:28;;;;;;;15.63;14.20;;;;;;;27.10;58.20;95108.28;5033443;28;20050;-69
2023/08/06 10:57:14;;;;;;;9.82;8.93;;;;;;;26.44;57.32;95126.34;5033393;28;20060;-68
2023/08/06 10:59:42;;;;;;;7.13;5.35;;;;;;;25.86;57.13;95127.19;5033182;28;20053;-70
2023/08/06 11:02:21;;;;;;;6.55;4.20;;;;;;;25.57;58.32;95123.53;5033192;28;20052;-69
2023/08/06 11:05:12;;;;;;;6.07;3.97;;;;;;;25.61;58.90;95130.19;5033139;28;20084;-68
2023/08/06 11:07:59;;;;;;;6.38;3.70;;;;;;;25.70;58.28;95128.22;5033163;28;20537;-69
2023/08/06 11:10:27;;;;;;;8.57;3.17;;;;;;;26.02;56.39;95147.53;5033281;28;20486;-68
2023/08/06 11:12:56;;;;;;;4.85;3.50;;;;;;;26.08;55.60;95148.63;5033078;28;20053;-69
2023/08/06 11:15:47;;;;;;;3.28;2.88;;;;;;;26.03;54.79;95153.75;5033052;28;20522;-68
2023/08/06 11:18:14;;;;;;;4.40;2.80;;;;;;;25.97;54.93;95176.72;5033214;28;20049;-69
2023/08/06 11:21:00;;;;;;;5.18;3.25;;;;;;;25.74;54.96;95186.56;5033168;28;20050;-67
2023/08/06 11:23:28;;;;;;;3.58;3.20;;;;;;;25.58;55.27;95187.56;5032994;28;20494;-68
2023/08/06 11:25:56;;;;;;;3.22;2.53;;;;;;;25.50;54.88;95187.69;5032919;28;20057;-68
2023/08/06 11:28:37;;;;;;;5.78;2.60;;;;;;;25.59;53.94;95177.69;5033114;28;20414;-68
2023/08/06 11:31:07;;;;;;;2.90;2.70;;;;;;;25.48;52.88;95195.06;5033151;28;20046;-67
2023/08/06 11:33:34;;;;;;;3.67;2.97;;;;;;;25.79;53.44;95186.00;5032945;28;20100;-67
2023/08/06 11:36:12;;;;;;;4.28;3.70;;;;;;;26.08;51.43;95186.13;5032939;28;20045;-67
2023/08/06 11:38:39;;;;;;;4.10;3.22;;;;;;;26.08;51.87;95181.63;5032859;28;20084;-68
2023/08/06 11:41:08;;;;;;;5.40;3.00;;;;;;;26.36;50.33;95185.41;5033114;28;20450;-68
2023/08/06 11:43:37;;;;;;;3.70;1.88;;;;;;;26.64;49.16;95191.88;5032968;28;20136;-69
2023/08/06 11:46:04;;;;;;;3.67;1.90;;;;;;;26.88;47.72;95183.41;5032824;28;20053;-69
2023/08/06 11:48:55;;;;;;;1.90;1.77;;;;;;;27.04;45.40;95184.19;5032767;28;20136;-69
2023/08/06 11:58:39;;;;;;;1.90;1.75;;;;;;;27.62;44.45;95192.97;4991351;28;20520;-68
2023/08/06 12:01:10;;;;;;;1.90;1.80;;;;;;;27.74;44.48;95198.66;4989632;28;20403;-69
2023/08/06 12:03:41;;;;;;;3.15;1.88;;;;;;;27.73;43.79;95189.78;4991400;28;20051;-68
2023/08/06 12:06:08;;;;;;;2.58;2.00;;;;;;;27.97;44.38;95182.22;4991311;28;20058;-69
2023/08/06 12:09:18;;;;;;;5.18;2.20;;;;;;;27.83;43.88;95184.03;4991233;28;20082;-69
2023/08/06 12:11:45;;;;;;;3.03;2.10;;;;;;;27.75;44.07;95185.03;4994818;28;20073;-69
2023/08/06 12:14:13;;;;;;;1.92;1.73;;;;;;;27.67;43.13;95176.31;4995132;28;20053;-68
2023/08/06 12:17:07;;;;;;;4.50;2.20;;;;;;;27.82;43.84;95179.69;4994983;28;20046;-69
2023/08/06 12:19:44;;;;;;;1.77;1.67;;;;;;;27.97;42.17;95176.88;4994804;28;20068;-68
2023/08/06 12:22:45;;;;;;;4.10;2.10;;;;;;;28.15;41.61;95169.25;4993619;28;20053;-69
2023/08/06 12:25:24;;;;;;;2.85;1.67;;;;;;;27.97;42.39;95173.34;4993882;28;20065;-68
2023/08/06 12:27:52;;;;;;;6.45;1.60;;;;;;;28.05;41.66;95166.97;4994617;28;20078;-69
2023/08/06 12:30:41;;;;;;;3.88;1.50;;;;;;;28.01;42.42;95171.91;4994604;28;20084;-69
2023/08/06 12:33:14;;;;;;;1.55;1.45;;;;;;;28.03;41.16;95167.16;4994198;28;20109;-68
2023/08/06 12:35:43;;;;;;;2.22;1.67;;;;;;;27.89;41.62;95163.59;4994443;28;20133;-69
2023/08/06 12:41:20;;;;;;;3.38;1.65;;;;;;;27.84;42.40;95163.38;4989921;28;20050;-69
2023/08/06 12:43:50;;;;;;;4.50;2.45;;;;;;;27.82;43.09;95155.53;4994062;28;20054;-69
2023/08/06 12:46:41;;;;;;;3.42;2.10;;;;;;;27.97;43.59;95159.91;4993999;28;20061;-69
2023/08/06 12:50:08;;;;;;;4.78;1.85;;;;;;;27.97;43.77;95159.91;4993695;28;20551;-69
2023/08/06 12:52:58;;;;;;;4.07;2.10;;;;;;;28.03;44.67;95158.25;4992844;28;20050;-69
2023/08/06 12:55:42;;;;;;;2.92;2.35;;;;;;;28.03;42.41;95159.09;4990848;28;20114;-69
2023/08/06 12:58:32;;;;;;;3.03;1.90;;;;;;;28.02;42.58;95151.25;4994144;28;20141;-68
2023/08/06 13:01:10;;;;;;;2.90;2.28;;;;;;;28.21;43.28;95149.63;4994194;28;20065;-69
2023/08/06 13:03:46;;;;;;;2.28;1.85;;;;;;;27.97;43.09;95151.84;4993199;28;20051;-69
2023/08/06 13:06:41;;;;;;;2.40;2.20;;;;;;;27.83;42.98;95149.13;4993956;28;20599;-68